createdAt,value
2022-10-17T00:02:25.928Z,1.88
2022-10-17T00:04:52.814Z,2.00
2022-10-17T00:07:19.656Z,2.05
2022-10-17T00:09:46.538Z,2.20
2022-10-17T00:12:13.545Z,1.55
2022-10-17T00:14:40.385Z,2.10
2022-10-17T00:17:07.238Z,2.35
2022-10-17T00:19:34.074Z,2.30
2022-10-17T00:22:01.028Z,1.83
2022-10-17T00:24:27.964Z,1.65
2022-10-17T00:26:54.717Z,1.55
2022-10-17T00:29:21.809Z,1.45
2022-10-17T00:31:48.759Z,2.15
2022-10-17T00:34:15.746Z,1.58
2022-10-17T00:36:42.547Z,2.20
2022-10-17T00:39:09.587Z,2.03
2022-10-17T00:41:36.490Z,2.63
2022-10-17T00:44:27.801Z,2.25
2022-10-17T00:46:54.705Z,1.60
2022-10-17T00:49:23.933Z,2.05
2022-10-17T00:51:54.775Z,1.65
2022-10-17T00:54:24.570Z,1.60
2022-10-17T00:56:52.295Z,1.15
2022-10-17T00:59:22.466Z,1.58
2022-10-17T01:02:00.271Z,1.67
2022-10-17T01:04:27.309Z,1.08
2022-10-17T01:06:54.256Z,0.95
2022-10-17T01:09:21.200Z,1.40
2022-10-17T01:12:16.824Z,1.77
2022-10-17T01:14:55.030Z,0.85
2022-10-17T01:17:30.882Z,1.08
2022-10-17T01:20:34.946Z,1.02
2022-10-17T01:23:41.622Z,0.70
2022-10-17T01:26:28.085Z,1.02
2022-10-17T01:29:13.258Z,0.60
2022-10-17T01:31:58.688Z,1.00
2022-10-17T01:34:31.206Z,1.27
2022-10-17T01:37:00.970Z,1.58
2022-10-17T01:39:47.028Z,0.93
2022-10-17T01:42:37.862Z,0.82
2022-10-17T01:45:11.870Z,0.90
2022-10-17T01:47:41.289Z,1.10
2022-10-17T01:50:25.002Z,1.20
2022-10-17T01:52:57.282Z,1.75
2022-10-17T01:55:30.932Z,0.95
2022-10-17T01:58:07.400Z,1.10
2022-10-17T02:00:35.915Z,1.98
2022-10-17T02:03:07.606Z,0.98
2022-10-17T02:05:39.601Z,1.20
2022-10-17T02:08:07.573Z,1.02
2022-10-17T02:10:52.178Z,0.95
2022-10-17T02:13:37.608Z,1.10
2022-10-17T02:16:29.538Z,1.02
2022-10-17T02:19:26.486Z,0.70
2022-10-17T02:22:18.325Z,1.75
2022-10-17T02:25:15.008Z,1.48
2022-10-17T02:27:58.284Z,1.38
2022-10-17T02:30:55.284Z,1.38
2022-10-17T02:33:29.821Z,1.38
2022-10-17T02:36:02.029Z,2.38
2022-10-17T02:38:30.971Z,2.08
2022-10-17T02:40:58.236Z,1.52
2022-10-17T02:43:25.675Z,1.67
2022-10-17T02:45:54.209Z,1.45
2022-10-17T02:48:38.826Z,1.30
2022-10-17T02:51:21.651Z,1.27
2022-10-17T02:54:09.848Z,1.45
2022-10-17T02:56:50.809Z,1.10
2022-10-17T02:59:22.182Z,1.35
2022-10-17T03:04:19.575Z,1.10
2022-10-17T03:06:47.697Z,1.10
2022-10-17T03:09:15.106Z,1.98
2022-10-17T03:11:42.043Z,0.80
2022-10-17T03:14:09.038Z,1.35
2022-10-17T03:16:35.994Z,1.10
2022-10-17T03:19:03.492Z,1.25
2022-10-17T03:21:30.413Z,1.50
2022-10-17T03:23:57.487Z,1.00
2022-10-17T03:26:24.362Z,1.20
2022-10-17T03:28:53.689Z,1.00
2022-10-17T03:31:22.194Z,1.17
2022-10-17T03:33:49.260Z,1.15
2022-10-17T03:36:18.920Z,1.58
2022-10-17T03:38:46.636Z,0.80
2022-10-17T03:41:13.729Z,1.30
2022-10-17T03:43:40.634Z,0.90
2022-10-17T03:46:07.859Z,1.55
2022-10-17T03:48:34.836Z,1.17
2022-10-17T03:51:06.330Z,1.10
2022-10-17T03:53:33.725Z,0.98
2022-10-17T03:56:18.753Z,1.52
2022-10-17T03:58:45.899Z,1.20
2022-10-17T04:01:15.613Z,0.75
2022-10-17T04:03:43.480Z,1.00
2022-10-17T04:06:12.931Z,1.20
2022-10-17T04:08:40.074Z,1.30
2022-10-17T04:11:08.572Z,1.20
2022-10-17T04:13:35.971Z,1.10
2022-10-17T04:16:08.894Z,1.10
2022-10-17T04:18:35.743Z,1.08
2022-10-17T04:21:03.672Z,1.05
2022-10-17T04:23:31.075Z,1.30
2022-10-17T04:25:59.144Z,0.77
2022-10-17T04:28:27.975Z,1.40
2022-10-17T04:31:06.534Z,1.25
2022-10-17T04:33:34.455Z,1.10
2022-10-17T04:36:07.035Z,1.30
2022-10-17T04:38:34.507Z,1.00
2022-10-17T04:41:03.600Z,1.13
2022-10-17T04:43:31.459Z,1.17
2022-10-17T04:45:59.789Z,1.27
2022-10-17T04:48:27.093Z,0.82
2022-10-17T04:50:55.676Z,0.90
2022-10-17T04:53:23.668Z,2.03
2022-10-17T04:55:50.843Z,1.38
2022-10-17T04:58:17.832Z,1.35
2022-10-17T05:00:45.073Z,1.00
2022-10-17T05:03:12.240Z,1.02
2022-10-17T05:05:40.355Z,0.90
2022-10-17T05:08:09.621Z,1.48
2022-10-17T05:10:38.663Z,1.02
2022-10-17T05:13:06.208Z,2.05
2022-10-17T05:15:33.717Z,1.00
2022-10-17T05:18:00.874Z,0.93
2022-10-17T05:20:28.015Z,1.20
2022-10-17T05:22:55.117Z,1.45
2022-10-17T05:25:22.473Z,1.25
2022-10-17T05:27:49.366Z,1.40
2022-10-17T05:30:16.219Z,1.15
2022-10-17T05:32:43.154Z,0.75
2022-10-17T05:35:09.992Z,0.75
2022-10-17T05:37:36.996Z,0.80
2022-10-17T05:40:04.497Z,0.93
2022-10-17T05:42:31.986Z,0.98
2022-10-17T05:44:59.204Z,1.40
2022-10-17T05:47:26.156Z,0.90
2022-10-17T05:49:53.059Z,0.80
2022-10-17T05:52:19.946Z,1.00
2022-10-17T05:54:46.894Z,1.15
2022-10-17T05:57:13.788Z,1.27
2022-10-17T05:59:40.628Z,0.85
2022-10-17T06:02:07.607Z,1.05
2022-10-17T06:04:34.409Z,1.17
2022-10-17T06:07:01.300Z,0.90
2022-10-17T06:09:28.706Z,1.20
2022-10-17T06:11:55.596Z,1.63
2022-10-17T06:14:22.699Z,1.40
2022-10-17T06:16:49.496Z,1.50
2022-10-17T06:19:16.591Z,1.10
2022-10-17T06:21:43.586Z,1.90
2022-10-17T06:24:10.374Z,1.92
2022-10-17T06:26:37.241Z,1.13
2022-10-17T06:29:04.422Z,1.52
2022-10-17T06:31:31.269Z,1.52
2022-10-17T06:33:58.099Z,1.42
2022-10-17T06:36:25.208Z,1.20
2022-10-17T06:38:52.094Z,1.23
2022-10-17T06:41:21.958Z,1.20
2022-10-17T06:43:49.100Z,1.10
2022-10-17T06:46:17.853Z,1.60
2022-10-17T06:48:45.098Z,1.17
2022-10-17T06:51:12.762Z,1.30
2022-10-17T06:53:40.682Z,1.10
2022-10-17T06:56:09.571Z,1.20
2022-10-17T06:58:39.386Z,1.60
2022-10-17T07:01:10.986Z,0.80
2022-10-17T07:03:38.190Z,1.70
2022-10-17T07:06:05.494Z,1.15
2022-10-17T07:08:32.487Z,1.02
2022-10-17T07:10:59.592Z,1.27
2022-10-17T07:13:26.757Z,1.00
2022-10-17T07:18:25.397Z,1.10
2022-10-17T07:20:55.719Z,1.20
2022-10-17T07:23:23.333Z,1.10
2022-10-17T07:25:50.415Z,1.00
2022-10-17T07:28:17.567Z,1.10
2022-10-17T07:30:44.756Z,1.35
2022-10-17T07:33:11.662Z,1.00
2022-10-17T07:35:41.114Z,0.73
2022-10-17T07:38:08.582Z,1.00
2022-10-17T07:40:35.765Z,1.27
2022-10-17T07:43:02.927Z,1.13
2022-10-17T07:45:29.875Z,1.90
2022-10-17T07:47:58.908Z,0.90
2022-10-17T07:50:26.041Z,1.38
2022-10-17T07:52:53.003Z,1.05
2022-10-17T07:55:19.904Z,1.33
2022-10-17T07:57:46.909Z,1.42
2022-10-17T08:00:13.998Z,1.48
2022-10-17T08:02:40.884Z,1.10
2022-10-17T08:05:07.998Z,1.17
2022-10-17T08:07:35.199Z,0.95
2022-10-17T08:10:02.159Z,1.42
2022-10-17T08:12:32.591Z,1.17
2022-10-17T08:14:59.960Z,1.60
2022-10-17T08:17:27.061Z,1.10
2022-10-17T08:19:53.963Z,1.00
2022-10-17T08:22:21.013Z,1.42
2022-10-17T08:24:48.011Z,1.00
2022-10-17T08:27:14.798Z,1.10
2022-10-17T08:29:41.734Z,1.42
2022-10-17T08:32:10.346Z,0.98
2022-10-17T08:34:37.417Z,1.65
2022-10-17T08:37:04.399Z,1.25
2022-10-17T08:39:31.407Z,2.45
2022-10-17T08:42:16.784Z,1.55
2022-10-17T08:45:10.148Z,1.00
2022-10-17T08:47:41.139Z,0.88
2022-10-17T08:50:32.558Z,0.93
2022-10-17T08:53:16.607Z,0.98
2022-10-17T08:55:47.491Z,1.10
2022-10-17T08:58:15.565Z,1.00
2022-10-17T09:01:11.942Z,1.30
2022-10-17T09:04:00.859Z,1.02
2022-10-17T09:06:37.736Z,0.93
2022-10-17T09:09:30.809Z,1.13
2022-10-17T09:12:09.005Z,1.30
2022-10-17T09:15:04.041Z,2.53
2022-10-17T09:17:52.871Z,0.90
2022-10-17T09:20:21.304Z,0.63
2022-10-17T09:23:03.062Z,0.90
2022-10-17T09:25:43.961Z,0.93
2022-10-17T09:28:10.911Z,0.75
2022-10-17T09:30:45.638Z,0.95
2022-10-17T09:33:35.136Z,0.85
2022-10-17T09:36:24.933Z,0.73
2022-10-17T09:39:00.486Z,1.25
2022-10-17T09:41:46.551Z,0.80
2022-10-17T09:44:20.439Z,1.05
2022-10-17T09:47:19.642Z,0.82
2022-10-17T09:49:48.664Z,1.02
2022-10-17T09:52:39.640Z,0.68
2022-10-17T09:55:16.170Z,1.30
2022-10-17T09:58:00.712Z,0.85
2022-10-17T10:00:31.591Z,1.02
2022-10-17T10:03:15.856Z,1.20
2022-10-17T10:05:57.706Z,1.23
2022-10-17T10:08:29.157Z,1.38
2022-10-17T10:11:05.827Z,1.15
2022-10-17T10:13:34.470Z,0.90
2022-10-17T10:16:32.367Z,0.93
2022-10-17T10:18:59.778Z,0.90
2022-10-17T10:21:28.212Z,0.80
2022-10-17T10:24:15.134Z,0.90
2022-10-17T10:26:44.382Z,0.90
2022-10-17T10:29:23.503Z,1.33
2022-10-17T10:31:51.619Z,0.88
2022-10-17T10:34:21.292Z,1.13
2022-10-17T10:37:02.456Z,1.00
2022-10-17T10:39:43.661Z,0.80
2022-10-17T10:42:27.085Z,0.75
2022-10-17T10:44:59.871Z,0.80
2022-10-17T10:47:31.153Z,1.10
2022-10-17T10:50:33.119Z,1.00
2022-10-17T10:55:55.131Z,1.15
2022-10-17T10:58:40.226Z,0.77
2022-10-17T11:01:38.672Z,0.60
2022-10-17T11:04:33.374Z,0.90
2022-10-17T11:07:20.660Z,1.13
2022-10-17T11:10:28.701Z,0.70
2022-10-17T11:13:06.861Z,1.13
2022-10-17T11:15:53.526Z,1.00
2022-10-17T11:18:39.004Z,0.90
2022-10-17T11:21:29.165Z,0.90
2022-10-17T11:24:24.988Z,0.82
2022-10-17T11:27:03.821Z,0.80
2022-10-17T11:29:38.374Z,0.70
2022-10-17T11:32:36.781Z,0.82
2022-10-17T11:35:26.788Z,0.70
2022-10-17T11:38:06.001Z,0.60
2022-10-17T11:40:36.940Z,0.80
2022-10-17T11:43:12.027Z,0.90
2022-10-17T11:45:52.387Z,0.55
2022-10-17T11:48:37.823Z,0.70
2022-10-17T11:54:44.982Z,0.50
2022-10-17T11:57:35.111Z,0.55
2022-10-17T12:00:20.300Z,0.60
2022-10-17T12:03:07.455Z,0.77
2022-10-17T12:05:43.636Z,0.70
2022-10-17T12:08:31.538Z,0.50
2022-10-17T12:11:07.151Z,0.60
2022-10-17T12:13:34.091Z,0.80
2022-10-17T12:16:21.884Z,0.60
2022-10-17T12:18:52.259Z,0.70
2022-10-17T12:21:19.121Z,0.47
2022-10-17T12:23:53.576Z,0.60
2022-10-17T12:26:29.026Z,0.65
2022-10-17T12:28:57.457Z,0.80
2022-10-17T12:31:33.340Z,1.08
2022-10-17T12:34:02.705Z,0.57
2022-10-17T12:36:29.589Z,0.75
2022-10-17T12:39:02.024Z,0.65
2022-10-17T12:41:41.048Z,0.57
2022-10-17T12:44:13.857Z,0.75
2022-10-17T12:46:46.561Z,0.95
2022-10-17T12:49:42.786Z,0.70
2022-10-17T12:52:23.859Z,0.90
2022-10-17T12:55:12.203Z,0.75
2022-10-17T12:58:03.473Z,0.80
2022-10-17T13:00:37.634Z,0.80
2022-10-17T13:03:18.822Z,0.65
2022-10-17T13:05:52.730Z,0.60
2022-10-17T13:08:39.241Z,0.80
2022-10-17T13:11:07.920Z,0.80
2022-10-17T13:13:49.186Z,1.10
2022-10-17T13:16:29.454Z,0.60
2022-10-17T13:18:57.218Z,0.70
2022-10-17T13:21:24.416Z,0.82
2022-10-17T13:23:53.468Z,1.20
2022-10-17T13:26:28.650Z,0.63
2022-10-17T13:29:13.465Z,1.00
2022-10-17T13:31:42.613Z,0.82
2022-10-17T13:34:21.754Z,0.63
2022-10-17T13:36:52.638Z,0.77
2022-10-17T13:39:38.374Z,0.52
2022-10-17T13:42:32.231Z,0.80
2022-10-17T13:44:59.762Z,0.80
2022-10-17T13:47:33.923Z,0.93
2022-10-17T13:50:01.373Z,0.50
2022-10-17T13:52:30.520Z,0.60
2022-10-17T13:55:17.582Z,0.95
2022-10-17T13:57:44.652Z,0.98
2022-10-17T14:00:23.219Z,0.75
2022-10-17T14:02:50.203Z,1.05
2022-10-17T14:05:20.991Z,0.65
2022-10-17T14:10:43.554Z,0.82
2022-10-17T14:13:23.048Z,1.00
2022-10-17T14:15:50.898Z,0.80
2022-10-17T14:18:36.456Z,0.60
2022-10-17T14:21:34.420Z,0.93
2022-10-17T14:24:12.148Z,0.70
2022-10-17T14:26:48.264Z,0.77
2022-10-17T14:29:31.797Z,1.10
2022-10-17T14:32:06.264Z,0.70
2022-10-17T14:34:39.568Z,0.77
2022-10-17T14:37:25.756Z,1.02
2022-10-17T14:39:55.300Z,0.70
2022-10-17T14:42:23.788Z,0.88
2022-10-17T14:44:52.022Z,0.60
2022-10-17T14:47:43.339Z,1.50
2022-10-17T14:50:10.894Z,0.75
2022-10-17T14:52:39.221Z,0.75
2022-10-17T14:55:26.796Z,0.80
2022-10-17T14:57:53.725Z,1.00
2022-10-17T15:00:22.280Z,1.02
2022-10-17T15:02:50.363Z,0.90
2022-10-17T15:05:17.758Z,1.27
2022-10-17T15:07:44.611Z,1.15
2022-10-17T15:10:29.824Z,0.98
2022-10-17T15:12:59.947Z,0.70
2022-10-17T15:15:38.662Z,1.13
2022-10-17T15:18:05.964Z,0.80
2022-10-17T15:20:33.987Z,1.00
2022-10-17T15:23:02.480Z,1.00
2022-10-17T15:25:31.314Z,1.13
2022-10-17T15:27:59.025Z,0.80
2022-10-17T15:30:29.402Z,1.10
2022-10-17T15:32:56.606Z,1.13
2022-10-17T15:35:23.630Z,1.13
2022-10-17T15:37:51.458Z,0.90
2022-10-17T15:40:25.358Z,1.30
2022-10-17T15:42:52.475Z,0.90
2022-10-17T15:45:22.435Z,0.80
2022-10-17T15:48:17.274Z,1.10
2022-10-17T15:50:44.238Z,1.25
2022-10-17T15:53:14.812Z,1.20
2022-10-17T15:55:41.851Z,0.90
2022-10-17T15:58:16.278Z,0.90
2022-10-17T16:00:43.759Z,0.98
2022-10-17T16:03:10.670Z,1.13
2022-10-17T16:05:37.629Z,1.02
2022-10-17T16:08:04.919Z,1.08
2022-10-17T16:10:32.180Z,1.02
2022-10-17T16:12:59.021Z,0.70
2022-10-17T16:15:28.212Z,1.20
2022-10-17T16:17:57.094Z,0.98
2022-10-17T16:20:25.885Z,0.75
2022-10-17T16:22:59.870Z,1.25
2022-10-17T16:25:30.080Z,0.90
2022-10-17T16:27:58.817Z,0.95
2022-10-17T16:30:27.971Z,1.08
2022-10-17T16:32:55.877Z,1.17
2022-10-17T16:35:25.283Z,0.95
2022-10-17T16:37:52.274Z,1.10
2022-10-17T16:40:19.489Z,0.88
2022-10-17T16:42:46.675Z,1.10
2022-10-17T16:45:22.155Z,2.10
2022-10-17T16:47:50.730Z,1.30
2022-10-17T16:50:18.074Z,1.27
2022-10-17T16:52:45.059Z,1.38
2022-10-17T16:55:11.960Z,2.30
2022-10-17T16:57:38.796Z,1.23
2022-10-17T17:00:07.433Z,0.90
2022-10-17T17:02:34.494Z,1.20
2022-10-17T17:05:01.671Z,1.60
2022-10-17T17:07:30.189Z,2.13
2022-10-17T17:09:57.455Z,1.90
2022-10-17T17:12:24.305Z,1.92
2022-10-17T17:14:51.345Z,1.70
2022-10-17T17:17:30.421Z,1.52
2022-10-17T17:20:06.913Z,1.77
2022-10-17T17:22:34.520Z,2.13
2022-10-17T17:25:01.294Z,1.77
2022-10-17T17:27:29.530Z,2.58
2022-10-17T17:29:56.735Z,2.47
2022-10-17T17:32:23.641Z,2.45
2022-10-17T17:34:50.563Z,2.97
2022-10-17T17:37:17.406Z,2.20
2022-10-17T17:39:44.552Z,2.22
2022-10-17T17:42:11.501Z,2.50
2022-10-17T17:44:38.339Z,2.33
2022-10-17T17:47:05.400Z,2.55
2022-10-17T17:49:32.381Z,2.78
2022-10-17T17:51:59.273Z,3.58
2022-10-17T17:54:26.180Z,3.67
2022-10-17T17:56:53.020Z,3.83
2022-10-17T17:59:19.970Z,3.67
2022-10-17T18:01:46.942Z,4.00
2022-10-17T18:04:13.954Z,4.60
2022-10-17T18:06:40.850Z,3.97
2022-10-17T18:09:09.133Z,3.28
2022-10-17T18:11:37.094Z,5.68
2022-10-17T18:14:06.658Z,6.75
2022-10-17T18:16:35.897Z,6.82
2022-10-17T18:19:06.760Z,7.03
2022-10-17T18:21:34.259Z,7.57
2022-10-17T18:24:01.106Z,6.13
2022-10-17T18:26:28.809Z,4.97
2022-10-17T18:28:55.857Z,4.50
2022-10-17T18:31:28.445Z,3.92
2022-10-17T18:33:57.321Z,4.03
2022-10-17T18:36:26.322Z,4.13
2022-10-17T18:38:54.290Z,5.40
2022-10-17T18:41:24.089Z,4.80
2022-10-17T18:43:52.469Z,4.70
2022-10-17T18:46:22.237Z,4.07
2022-10-17T18:48:50.513Z,3.97
2022-10-17T18:51:20.312Z,3.83
2022-10-17T18:53:50.587Z,3.70
2022-10-17T18:56:19.283Z,3.30
2022-10-17T18:58:46.689Z,3.70
2022-10-17T19:01:21.748Z,3.60
2022-10-17T19:03:51.634Z,8.32
2022-10-17T19:06:21.539Z,3.78
2022-10-17T19:08:49.150Z,4.05
2022-10-17T19:11:19.025Z,4.65
2022-10-17T19:13:47.497Z,4.80
2022-10-17T19:16:20.282Z,5.68
2022-10-17T19:18:55.567Z,5.47
2022-10-17T19:21:22.728Z,5.05
2022-10-17T19:23:54.990Z,4.53
2022-10-17T19:26:23.160Z,5.15
2022-10-17T19:28:53.587Z,4.80
2022-10-17T19:31:26.460Z,4.77
2022-10-17T19:33:55.414Z,3.88
2022-10-17T19:36:27.511Z,5.30
2022-10-17T19:38:58.363Z,4.60
2022-10-17T19:41:26.028Z,4.93
2022-10-17T19:43:52.978Z,8.25
2022-10-17T19:46:23.970Z,5.07
2022-10-17T19:48:51.632Z,4.32
2022-10-17T19:51:20.101Z,4.28
2022-10-17T19:53:47.000Z,4.32
2022-10-17T19:56:14.354Z,4.22
2022-10-17T19:58:45.544Z,4.05
2022-10-17T20:01:18.149Z,3.60
2022-10-17T20:03:45.735Z,3.78
2022-10-17T20:06:12.684Z,3.35
2022-10-17T20:08:40.447Z,4.15
2022-10-17T20:11:11.067Z,3.92
2022-10-17T20:13:38.786Z,5.37
2022-10-17T20:16:07.835Z,6.45
2022-10-17T20:18:35.494Z,10.20
2022-10-17T20:21:05.255Z,15.80
2022-10-17T20:23:32.251Z,23.95
2022-10-17T20:26:08.042Z,15.57
2022-10-17T20:28:46.404Z,14.50
2022-10-17T20:31:13.924Z,16.40
2022-10-17T20:33:41.740Z,17.55
2022-10-17T20:36:10.580Z,16.73
2022-10-17T20:38:37.985Z,16.13
2022-10-17T20:41:08.718Z,16.00
2022-10-17T20:43:37.200Z,17.25
2022-10-17T20:46:16.964Z,17.38
2022-10-17T20:48:54.341Z,15.98
2022-10-17T20:51:21.685Z,15.20
2022-10-17T20:53:48.979Z,15.45
2022-10-17T20:56:27.660Z,15.35
2022-10-17T20:58:57.373Z,15.27
2022-10-17T21:01:25.483Z,16.65
2022-10-17T21:03:52.736Z,14.63
2022-10-17T21:06:20.258Z,15.68
2022-10-17T21:08:47.733Z,14.43
2022-10-17T21:11:20.034Z,13.30
2022-10-17T21:13:48.204Z,14.70
2022-10-17T21:16:18.069Z,13.65
2022-10-17T21:18:46.221Z,13.38
2022-10-17T21:21:28.253Z,11.27
2022-10-17T21:23:58.208Z,10.68
2022-10-17T21:26:25.062Z,10.60
2022-10-17T21:28:52.210Z,9.30
2022-10-17T21:31:27.389Z,8.50
2022-10-17T21:34:00.217Z,8.88
2022-10-17T21:36:28.456Z,9.73
2022-10-17T21:38:57.129Z,10.88
2022-10-17T21:41:28.997Z,10.82
2022-10-17T21:44:01.720Z,9.15
2022-10-17T21:46:28.913Z,7.80
2022-10-17T21:48:55.818Z,6.72
2022-10-17T21:51:24.517Z,7.93
2022-10-17T21:53:52.779Z,8.40
2022-10-17T21:56:22.382Z,8.40
2022-10-17T21:58:50.510Z,8.32
2022-10-17T22:01:25.490Z,7.47
2022-10-17T22:03:55.364Z,7.50
2022-10-17T22:06:39.295Z,7.40
2022-10-17T22:09:20.187Z,8.20
2022-10-17T22:11:50.288Z,8.10
2022-10-17T22:14:19.640Z,8.60
2022-10-17T22:16:47.774Z,7.72
2022-10-17T22:19:18.874Z,8.50
2022-10-17T22:21:45.952Z,8.10
2022-10-17T22:24:15.066Z,7.60
2022-10-17T22:26:43.067Z,7.95
2022-10-17T22:29:10.887Z,7.63
2022-10-17T22:31:38.330Z,7.07
2022-10-17T22:34:06.618Z,7.55
2022-10-17T22:36:34.388Z,7.22
2022-10-17T22:39:01.172Z,7.80
2022-10-17T22:41:28.127Z,7.80
2022-10-17T22:43:55.169Z,5.65
2022-10-17T22:46:22.225Z,4.72
2022-10-17T22:48:49.078Z,4.97
2022-10-17T22:51:16.214Z,4.82
2022-10-17T22:53:43.151Z,5.43
2022-10-17T22:56:12.869Z,6.22
2022-10-17T22:58:40.117Z,4.95
2022-10-17T23:01:08.344Z,3.33
2022-10-17T23:03:36.200Z,3.70
2022-10-17T23:06:02.996Z,4.55
2022-10-17T23:08:30.244Z,4.47
2022-10-17T23:10:57.609Z,4.50
2022-10-17T23:13:24.505Z,4.18
2022-10-17T23:15:55.905Z,4.15
2022-10-17T23:20:50.704Z,3.28
2022-10-17T23:23:18.383Z,3.92
2022-10-17T23:25:45.926Z,3.67
2022-10-17T23:28:13.190Z,3.92
2022-10-17T23:30:40.847Z,3.50
2022-10-17T23:33:08.197Z,4.40
2022-10-17T23:35:36.229Z,3.53
2022-10-17T23:38:03.531Z,3.00
2022-10-17T23:40:30.614Z,3.47
2022-10-17T23:42:57.561Z,3.22
2022-10-17T23:45:24.548Z,2.90
2022-10-17T23:47:51.451Z,3.60
2022-10-17T23:50:18.502Z,4.00
2022-10-17T23:52:45.309Z,4.00
2022-10-17T23:55:12.345Z,3.10
2022-10-17T23:57:39.233Z,2.45
